createdAt,value
2022-08-20T00:00:36.977Z,27.07
2022-08-20T00:01:41.919Z,27.40
2022-08-20T00:02:48.395Z,27.72
2022-08-20T00:03:53.501Z,27.99
2022-08-20T00:04:55.306Z,28.21
2022-08-20T00:06:19.641Z,28.37
2022-08-20T00:07:21.331Z,28.53
2022-08-20T00:08:23.632Z,28.62
2022-08-20T00:09:25.354Z,28.70
2022-08-20T00:10:33.961Z,28.80
2022-08-20T00:11:35.676Z,28.91
2022-08-20T00:12:38.499Z,29.01
2022-08-20T00:13:47.960Z,29.10
2022-08-20T00:14:49.642Z,29.15
2022-08-20T00:15:52.642Z,29.03
2022-08-20T00:16:54.361Z,28.65
2022-08-20T00:18:02.726Z,28.15
2022-08-20T00:19:08.315Z,27.69
2022-08-20T00:20:13.899Z,27.25
2022-08-20T00:21:19.072Z,26.97
2022-08-20T00:22:21.076Z,27.02
2022-08-20T00:23:24.085Z,27.24
2022-08-20T00:24:26.508Z,27.51
2022-08-20T00:25:29.529Z,27.75
2022-08-20T00:26:31.208Z,27.90
2022-08-20T00:27:33.196Z,27.99
2022-08-20T00:28:35.191Z,28.05
2022-08-20T00:29:36.856Z,28.12
2022-08-20T00:30:40.439Z,28.17
2022-08-20T00:31:43.199Z,28.21
2022-08-20T00:32:47.631Z,28.23
2022-08-20T00:33:51.254Z,28.26
2022-08-20T00:34:53.130Z,28.28
2022-08-20T00:35:56.793Z,28.32
2022-08-20T00:36:58.448Z,28.37
2022-08-20T00:38:00.845Z,28.42
2022-08-20T00:39:02.864Z,28.47
2022-08-20T00:40:07.478Z,28.51
2022-08-20T00:41:26.824Z,28.54
2022-08-20T00:42:28.544Z,28.58
2022-08-20T00:43:50.051Z,28.63
2022-08-20T00:44:51.769Z,28.70
2022-08-20T00:45:56.318Z,28.73
2022-08-20T00:46:58.555Z,28.76
2022-08-20T00:48:00.981Z,28.79
2022-08-20T00:49:05.983Z,28.84
2022-08-20T00:50:08.784Z,28.89
2022-08-20T00:51:33.560Z,28.93
2022-08-20T00:52:35.767Z,28.95
2022-08-20T00:53:38.408Z,28.96
2022-08-20T00:54:49.687Z,28.97
2022-08-20T00:55:51.573Z,28.99
2022-08-20T00:57:03.501Z,29.01
2022-08-20T00:58:09.658Z,29.03
2022-08-20T00:59:17.863Z,29.06
2022-08-20T01:00:29.386Z,29.05
2022-08-20T01:01:34.083Z,29.00
2022-08-20T01:02:57.570Z,28.82
2022-08-20T01:03:59.458Z,28.80
2022-08-20T01:05:01.796Z,28.81
2022-08-20T01:06:03.732Z,28.81
2022-08-20T01:07:07.111Z,28.83
2022-08-20T01:08:09.532Z,28.84
2022-08-20T01:09:11.994Z,28.83
2022-08-20T01:10:20.158Z,28.83
2022-08-20T01:11:39.930Z,28.83
2022-08-20T01:12:46.330Z,28.87
2022-08-20T01:13:48.963Z,28.89
2022-08-20T01:14:51.650Z,28.91
2022-08-20T01:15:56.893Z,28.93
2022-08-20T01:17:03.090Z,28.94
2022-08-20T01:18:07.534Z,28.94
2022-08-20T01:19:29.832Z,28.93
2022-08-20T01:20:39.662Z,28.92
2022-08-20T01:21:41.561Z,28.92
2022-08-20T01:23:09.135Z,28.92
2022-08-20T01:24:36.979Z,28.95
2022-08-20T01:26:09.612Z,28.97
2022-08-20T01:27:11.426Z,28.99
2022-08-20T01:28:16.281Z,28.99
2022-08-20T01:29:29.319Z,28.98
2022-08-20T01:30:32.793Z,28.95
2022-08-20T01:31:38.408Z,28.92
2022-08-20T01:32:40.189Z,28.90
2022-08-20T01:33:42.543Z,28.91
2022-08-20T01:34:46.341Z,28.94
2022-08-20T01:35:49.655Z,28.95
2022-08-20T01:36:55.297Z,28.97
2022-08-20T01:37:57.249Z,29.01
2022-08-20T01:39:00.301Z,29.04
2022-08-20T01:40:04.518Z,29.05
2022-08-20T01:41:28.776Z,29.06
2022-08-20T01:42:58.794Z,29.06
2022-08-20T01:44:02.217Z,29.05
2022-08-20T01:45:07.038Z,29.05
2022-08-20T01:46:10.257Z,29.06
2022-08-20T01:47:16.859Z,29.05
2022-08-20T01:48:21.457Z,29.02
2022-08-20T01:49:31.052Z,28.76
2022-08-20T01:50:38.902Z,28.29
2022-08-20T01:51:41.882Z,27.81
2022-08-20T01:52:55.414Z,27.40
2022-08-20T01:53:59.914Z,27.13
2022-08-20T01:55:02.435Z,27.26
2022-08-20T01:56:11.253Z,27.54
2022-08-20T01:57:17.366Z,27.85
2022-08-20T01:58:19.240Z,28.09
2022-08-20T01:59:21.130Z,28.27
2022-08-20T02:00:23.951Z,28.39
2022-08-20T02:01:46.020Z,28.48
2022-08-20T02:02:49.290Z,28.56
2022-08-20T02:03:51.298Z,28.62
2022-08-20T02:04:53.031Z,28.67
2022-08-20T02:05:54.706Z,28.71
2022-08-20T02:06:58.585Z,28.72
2022-08-20T02:08:01.842Z,28.74
2022-08-20T02:09:05.268Z,28.77
2022-08-20T02:10:11.052Z,28.81
2022-08-20T02:11:13.544Z,28.86
2022-08-20T02:12:16.645Z,28.90
2022-08-20T02:13:18.773Z,28.93
2022-08-20T02:14:20.938Z,28.97
2022-08-20T02:15:34.750Z,29.02
2022-08-20T02:16:43.429Z,29.06
2022-08-20T02:17:54.426Z,29.11
2022-08-20T02:19:02.381Z,29.14
2022-08-20T02:20:08.948Z,29.15
2022-08-20T02:21:10.729Z,29.15
2022-08-20T02:22:31.251Z,29.17
2022-08-20T02:23:32.967Z,29.19
2022-08-20T02:24:35.485Z,29.21
2022-08-20T02:25:41.527Z,29.14
2022-08-20T02:26:44.372Z,28.82
2022-08-20T02:27:48.684Z,28.40
2022-08-20T02:28:53.106Z,27.93
2022-08-20T02:29:54.821Z,27.51
2022-08-20T02:30:56.664Z,27.17
2022-08-20T02:32:24.575Z,27.15
2022-08-20T02:33:24.229Z,27.45
2022-08-20T02:34:26.324Z,27.75
2022-08-20T02:35:29.783Z,27.99
2022-08-20T02:36:32.096Z,28.18
2022-08-20T02:37:34.262Z,28.34
2022-08-20T02:38:35.960Z,28.45
2022-08-20T02:39:37.706Z,28.54
2022-08-20T02:40:41.016Z,28.60
2022-08-20T02:41:42.771Z,28.66
2022-08-20T02:42:44.894Z,28.71
2022-08-20T02:43:46.566Z,28.76
2022-08-20T02:44:48.228Z,28.80
2022-08-20T02:45:50.024Z,28.83
2022-08-20T02:46:51.934Z,28.85
2022-08-20T02:47:55.727Z,28.88
2022-08-20T02:48:58.578Z,28.89
2022-08-20T02:50:00.281Z,28.92
2022-08-20T02:51:06.599Z,28.94
2022-08-20T02:52:08.448Z,28.96
2022-08-20T02:53:10.129Z,28.98
2022-08-20T02:54:13.882Z,29.00
2022-08-20T02:55:26.949Z,29.01
2022-08-20T02:56:29.856Z,29.04
2022-08-20T02:57:32.099Z,29.05
2022-08-20T02:58:35.249Z,28.89
2022-08-20T02:59:36.960Z,28.51
2022-08-20T03:00:39.432Z,28.06
2022-08-20T03:01:41.154Z,27.64
2022-08-20T03:02:43.185Z,27.27
2022-08-20T03:03:45.388Z,27.09
2022-08-20T03:04:47.130Z,27.22
2022-08-20T03:05:52.267Z,27.49
2022-08-20T03:06:54.255Z,27.79
2022-08-20T03:07:59.889Z,28.02
2022-08-20T03:09:02.672Z,28.21
2022-08-20T03:10:04.746Z,28.35
2022-08-20T03:11:07.385Z,28.45
2022-08-20T03:12:09.739Z,28.54
2022-08-20T03:13:13.402Z,28.63
2022-08-20T03:14:15.070Z,28.72
2022-08-20T03:15:17.812Z,28.79
2022-08-20T03:16:20.161Z,28.87
2022-08-20T03:17:21.975Z,28.92
2022-08-20T03:18:26.482Z,28.96
2022-08-20T03:19:29.894Z,28.82
2022-08-20T03:20:32.715Z,28.46
2022-08-20T03:21:35.251Z,28.04
2022-08-20T03:22:37.052Z,27.64
2022-08-20T03:23:40.416Z,27.28
2022-08-20T03:24:42.364Z,27.02
2022-08-20T03:25:44.409Z,27.10
2022-08-20T03:26:46.649Z,27.39
2022-08-20T03:27:54.624Z,27.70
2022-08-20T03:28:56.810Z,27.99
2022-08-20T03:29:58.511Z,28.19
2022-08-20T03:31:02.406Z,28.35
2022-08-20T03:32:07.689Z,28.47
2022-08-20T03:33:10.311Z,28.56
2022-08-20T03:34:12.051Z,28.63
2022-08-20T03:35:16.428Z,28.69
2022-08-20T03:36:19.221Z,28.76
2022-08-20T03:37:24.348Z,28.83
2022-08-20T03:38:33.284Z,28.88
2022-08-20T03:39:35.307Z,28.94
2022-08-20T03:40:38.356Z,28.99
2022-08-20T03:41:40.283Z,29.01
2022-08-20T03:42:43.006Z,28.87
2022-08-20T03:43:45.989Z,28.52
2022-08-20T03:44:48.590Z,28.08
2022-08-20T03:46:01.217Z,27.60
2022-08-20T03:47:07.645Z,27.25
2022-08-20T03:48:16.237Z,27.06
2022-08-20T03:49:18.053Z,27.23
2022-08-20T03:50:24.517Z,27.53
2022-08-20T03:51:26.765Z,27.84
2022-08-20T03:52:29.444Z,28.08
2022-08-20T03:53:31.926Z,28.29
2022-08-20T03:54:33.820Z,28.45
2022-08-20T03:55:35.874Z,28.57
2022-08-20T03:56:38.146Z,28.66
2022-08-20T03:57:53.661Z,28.75
2022-08-20T03:58:55.962Z,28.84
2022-08-20T03:59:58.505Z,28.90
2022-08-20T04:01:01.358Z,28.94
2022-08-20T04:02:03.285Z,28.99
2022-08-20T04:03:08.297Z,28.88
2022-08-20T04:04:12.422Z,28.53
2022-08-20T04:05:14.774Z,28.10
2022-08-20T04:06:18.446Z,27.70
2022-08-20T04:07:25.912Z,27.32
2022-08-20T04:08:29.556Z,27.05
2022-08-20T04:09:31.362Z,27.13
2022-08-20T04:10:33.136Z,27.42
2022-08-20T04:11:34.908Z,27.72
2022-08-20T04:12:48.715Z,27.98
2022-08-20T04:13:54.770Z,28.23
2022-08-20T04:14:57.084Z,28.39
2022-08-20T04:16:03.609Z,28.50
2022-08-20T04:17:07.961Z,28.60
2022-08-20T04:18:11.845Z,28.70
2022-08-20T04:19:13.544Z,28.77
2022-08-20T04:20:19.162Z,28.82
2022-08-20T04:21:20.876Z,28.89
2022-08-20T04:22:22.629Z,28.94
2022-08-20T04:23:24.391Z,28.99
2022-08-20T04:24:32.034Z,29.04
2022-08-20T04:25:36.398Z,28.87
2022-08-20T04:26:38.096Z,28.50
2022-08-20T04:27:41.014Z,28.09
2022-08-20T04:28:42.637Z,27.70
2022-08-20T04:29:44.682Z,27.35
2022-08-20T04:30:51.711Z,27.14
2022-08-20T04:31:53.923Z,27.26
2022-08-20T04:32:56.452Z,27.54
2022-08-20T04:33:58.182Z,27.85
2022-08-20T04:35:00.835Z,28.12
2022-08-20T04:36:06.152Z,28.33
2022-08-20T04:37:16.556Z,28.50
2022-08-20T04:38:22.221Z,28.63
2022-08-20T04:39:23.962Z,28.72
2022-08-20T04:40:44.233Z,28.80
2022-08-20T04:41:45.970Z,28.90
2022-08-20T04:42:47.654Z,28.97
2022-08-20T04:43:57.082Z,29.02
2022-08-20T04:44:58.786Z,29.07
2022-08-20T04:46:06.310Z,29.07
2022-08-20T04:47:07.986Z,28.85
2022-08-20T04:48:14.666Z,28.48
2022-08-20T04:49:16.955Z,28.03
2022-08-20T04:50:20.397Z,27.65
2022-08-20T04:51:23.091Z,27.31
2022-08-20T04:52:28.215Z,27.19
2022-08-20T04:53:29.934Z,27.39
2022-08-20T04:54:32.437Z,27.70
2022-08-20T04:55:35.134Z,28.00
2022-08-20T04:56:39.767Z,28.26
2022-08-20T04:57:41.490Z,28.47
2022-08-20T04:58:48.804Z,28.64
2022-08-20T04:59:52.313Z,28.77
2022-08-20T05:01:01.116Z,28.88
2022-08-20T05:02:03.294Z,28.98
2022-08-20T05:03:07.066Z,29.06
2022-08-20T05:04:08.772Z,29.13
2022-08-20T05:05:11.003Z,29.18
2022-08-20T05:06:13.444Z,29.23
2022-08-20T05:07:18.943Z,29.14
2022-08-20T05:08:25.387Z,28.80
2022-08-20T05:09:27.036Z,28.37
2022-08-20T05:10:29.325Z,27.97
2022-08-20T05:11:34.221Z,27.62
2022-08-20T05:12:38.466Z,27.35
2022-08-20T05:13:40.551Z,27.43
2022-08-20T05:14:42.545Z,27.71
2022-08-20T05:15:48.608Z,28.03
2022-08-20T05:16:50.780Z,28.33
2022-08-20T05:18:00.572Z,28.55
2022-08-20T05:19:02.315Z,28.74
2022-08-20T05:20:06.662Z,28.87
2022-08-20T05:21:08.317Z,28.96
2022-08-20T05:22:09.945Z,29.03
2022-08-20T05:23:13.965Z,29.09
2022-08-20T05:24:16.486Z,29.15
2022-08-20T05:25:18.295Z,29.19
2022-08-20T05:26:20.238Z,29.04
2022-08-20T05:27:26.986Z,28.69
2022-08-20T05:28:32.842Z,28.25
2022-08-20T05:29:38.599Z,27.82
2022-08-20T05:30:43.258Z,27.48
2022-08-20T05:31:44.934Z,27.24
2022-08-20T05:32:48.767Z,27.34
2022-08-20T05:33:51.027Z,27.65
2022-08-20T05:34:52.904Z,27.97
2022-08-20T05:35:54.930Z,28.26
2022-08-20T05:36:56.742Z,28.50
2022-08-20T05:37:58.486Z,28.68
2022-08-20T05:39:00.233Z,28.82
2022-08-20T05:40:02.644Z,28.93
2022-08-20T05:41:05.352Z,29.04
2022-08-20T05:42:07.063Z,29.13
2022-08-20T05:43:10.267Z,29.20
2022-08-20T05:44:15.488Z,29.26
2022-08-20T05:45:18.166Z,29.15
2022-08-20T05:46:19.781Z,28.84
2022-08-20T05:47:27.906Z,28.45
2022-08-20T05:48:30.028Z,28.02
2022-08-20T05:49:32.247Z,27.69
2022-08-20T05:50:35.441Z,27.42
2022-08-20T05:51:38.027Z,27.47
2022-08-20T05:52:40.450Z,27.76
2022-08-20T05:53:42.092Z,28.10
2022-08-20T05:54:43.770Z,28.40
2022-08-20T05:55:46.238Z,28.65
2022-08-20T05:56:48.084Z,28.84
2022-08-20T05:57:50.516Z,29.01
2022-08-20T05:58:52.218Z,29.14
2022-08-20T05:59:53.927Z,29.25
2022-08-20T06:00:55.677Z,29.35
2022-08-20T06:01:57.370Z,29.43
2022-08-20T06:03:17.566Z,29.52
2022-08-20T06:04:25.149Z,29.61
2022-08-20T06:05:27.487Z,29.67
2022-08-20T06:06:46.316Z,29.54
2022-08-20T06:07:50.646Z,29.09
2022-08-20T06:08:52.551Z,28.68
2022-08-20T06:09:54.192Z,28.32
2022-08-20T06:10:56.402Z,27.99
2022-08-20T06:11:59.634Z,27.75
2022-08-20T06:13:02.981Z,27.83
2022-08-20T06:14:05.617Z,28.13
2022-08-20T06:15:07.924Z,28.48
2022-08-20T06:16:09.606Z,28.79
2022-08-20T06:17:17.527Z,29.06
2022-08-20T06:18:27.986Z,29.27
2022-08-20T06:19:32.489Z,29.45
2022-08-20T06:20:38.136Z,29.59
2022-08-20T06:21:41.056Z,29.69
2022-08-20T06:22:42.895Z,29.78
2022-08-20T06:23:57.088Z,29.82
2022-08-20T06:25:03.094Z,29.60
2022-08-20T06:26:07.642Z,29.21
2022-08-20T06:27:14.818Z,28.80
2022-08-20T06:28:17.224Z,28.40
2022-08-20T06:29:19.343Z,28.08
2022-08-20T06:30:21.400Z,27.81
2022-08-20T06:31:23.114Z,27.75
2022-08-20T06:32:28.782Z,28.01
2022-08-20T06:33:34.230Z,28.42
2022-08-20T06:34:36.723Z,28.77
2022-08-20T06:35:38.430Z,29.08
2022-08-20T06:36:40.089Z,29.32
2022-08-20T06:37:43.062Z,29.50
2022-08-20T06:38:45.886Z,29.65
2022-08-20T06:39:47.638Z,29.76
2022-08-20T06:40:49.369Z,29.86
2022-08-20T06:41:51.774Z,29.93
2022-08-20T06:42:56.820Z,29.83
2022-08-20T06:43:58.533Z,29.53
2022-08-20T06:45:00.555Z,29.16
2022-08-20T06:46:02.287Z,28.79
2022-08-20T06:47:04.973Z,28.47
2022-08-20T06:48:11.161Z,28.18
2022-08-20T06:49:17.126Z,28.04
2022-08-20T06:50:26.643Z,28.24
2022-08-20T06:51:28.389Z,28.64
2022-08-20T06:52:47.132Z,28.98
2022-08-20T06:53:51.798Z,29.35
2022-08-20T06:54:53.474Z,29.57
2022-08-20T06:55:59.211Z,29.76
2022-08-20T06:57:04.438Z,29.93
2022-08-20T06:58:22.284Z,30.07
2022-08-20T06:59:31.151Z,30.10
2022-08-20T07:00:36.459Z,29.87
2022-08-20T07:01:38.233Z,29.49
2022-08-20T07:02:40.757Z,29.13
2022-08-20T07:03:55.414Z,28.80
2022-08-20T07:04:57.909Z,28.45
2022-08-20T07:05:59.554Z,28.20
2022-08-20T07:07:01.297Z,28.03
2022-08-20T07:08:04.296Z,28.13
2022-08-20T07:09:05.933Z,28.49
2022-08-20T07:10:10.680Z,28.88
2022-08-20T07:11:12.422Z,29.25
2022-08-20T07:12:14.296Z,29.54
2022-08-20T07:13:16.403Z,29.78
2022-08-20T07:14:19.486Z,29.98
2022-08-20T07:15:23.857Z,30.09
2022-08-20T07:16:26.378Z,29.97
2022-08-20T07:17:28.147Z,29.67
2022-08-20T07:18:29.865Z,29.33
2022-08-20T07:19:31.688Z,29.01
2022-08-20T07:20:36.907Z,28.73
2022-08-20T07:21:38.648Z,28.47
2022-08-20T07:22:40.964Z,28.35
2022-08-20T07:23:42.840Z,28.55
2022-08-20T07:24:48.938Z,28.91
2022-08-20T07:25:50.950Z,29.32
2022-08-20T07:26:52.748Z,29.65
2022-08-20T07:28:08.966Z,29.96
2022-08-20T07:29:10.735Z,30.23
2022-08-20T07:30:55.887Z,30.40
2022-08-20T07:32:16.069Z,30.33
2022-08-20T07:33:23.556Z,29.91
2022-08-20T07:34:25.237Z,29.58
2022-08-20T07:35:27.288Z,29.30
2022-08-20T07:36:28.992Z,29.06
2022-08-20T07:37:31.471Z,28.87
2022-08-20T07:38:35.337Z,28.70
2022-08-20T07:39:37.028Z,28.53
2022-08-20T07:40:41.457Z,28.38
2022-08-20T07:41:43.306Z,28.30
2022-08-20T07:42:51.685Z,28.52
2022-08-20T07:43:53.433Z,28.94
2022-08-20T07:44:55.426Z,29.40
2022-08-20T07:46:01.339Z,29.81
2022-08-20T07:47:04.680Z,30.15
2022-08-20T07:48:12.240Z,30.21
2022-08-20T07:49:13.941Z,30.01
2022-08-20T07:50:21.769Z,29.73
2022-08-20T07:51:23.757Z,29.42
2022-08-20T07:52:25.409Z,29.18
2022-08-20T07:53:31.144Z,28.95
2022-08-20T07:54:38.019Z,28.74
2022-08-20T07:55:41.468Z,28.56
2022-08-20T07:57:05.123Z,28.39
2022-08-20T07:58:11.435Z,28.28
2022-08-20T07:59:13.829Z,28.16
2022-08-20T08:00:17.983Z,28.19
2022-08-20T08:01:25.948Z,28.53
2022-08-20T08:02:28.275Z,29.06
2022-08-20T08:03:39.697Z,29.52
2022-08-20T08:04:51.198Z,30.03
2022-08-20T08:05:52.870Z,30.25
2022-08-20T08:06:59.868Z,30.22
2022-08-20T08:08:07.128Z,29.99
2022-08-20T08:09:14.261Z,29.69
2022-08-20T08:10:22.018Z,29.42
2022-08-20T08:11:23.810Z,29.20
2022-08-20T08:12:36.326Z,29.04
2022-08-20T08:13:41.241Z,28.91
2022-08-20T08:14:46.293Z,28.82
2022-08-20T08:15:50.455Z,28.76
2022-08-20T08:16:55.286Z,28.87
2022-08-20T08:18:07.714Z,29.30
2022-08-20T08:19:11.876Z,29.89
2022-08-20T08:20:14.476Z,30.38
2022-08-20T08:21:17.710Z,30.78
2022-08-20T08:22:20.249Z,31.05
2022-08-20T08:23:31.697Z,31.04
2022-08-20T08:24:34.475Z,30.81
2022-08-20T08:25:36.207Z,30.56
2022-08-20T08:26:38.097Z,30.34
2022-08-20T08:27:40.838Z,30.12
2022-08-20T08:28:46.062Z,29.94
2022-08-20T08:29:49.702Z,29.77
2022-08-20T08:30:52.342Z,29.64
2022-08-20T08:31:53.976Z,29.53
2022-08-20T08:33:14.240Z,29.43
2022-08-20T08:34:15.965Z,29.32
2022-08-20T08:35:17.692Z,29.24
2022-08-20T08:36:19.409Z,29.17
2022-08-20T08:37:21.094Z,29.10
2022-08-20T08:38:23.811Z,29.04
2022-08-20T08:39:25.633Z,28.96
2022-08-20T08:40:34.135Z,28.87
2022-08-20T08:41:47.166Z,28.80
2022-08-20T08:42:58.109Z,28.72
2022-08-20T08:44:14.369Z,28.67
2022-08-20T08:45:19.230Z,28.91
2022-08-20T08:46:26.587Z,29.39
2022-08-20T08:47:34.564Z,29.93
2022-08-20T08:48:43.362Z,30.39
2022-08-20T08:49:48.003Z,30.78
2022-08-20T08:50:54.673Z,31.02
2022-08-20T08:52:07.498Z,30.97
2022-08-20T08:53:18.983Z,30.70
2022-08-20T08:54:24.782Z,30.39
2022-08-20T08:55:29.501Z,30.12
2022-08-20T08:56:31.380Z,29.89
2022-08-20T08:57:34.292Z,29.70
2022-08-20T08:58:36.249Z,29.54
2022-08-20T09:00:02.363Z,29.41
2022-08-20T09:01:06.858Z,29.25
2022-08-20T09:02:20.886Z,29.13
2022-08-20T09:03:29.386Z,29.03
2022-08-20T09:04:41.114Z,28.96
2022-08-20T09:05:53.818Z,28.88
2022-08-20T09:06:55.838Z,28.82
2022-08-20T09:08:02.558Z,28.77
2022-08-20T09:09:07.291Z,28.73
2022-08-20T09:10:09.114Z,28.73
2022-08-20T09:11:10.944Z,29.00
2022-08-20T09:12:19.043Z,29.49
2022-08-20T09:13:20.865Z,30.06
2022-08-20T09:14:24.976Z,30.53
2022-08-20T09:15:27.505Z,30.93
2022-08-20T09:16:52.093Z,31.16
2022-08-20T09:17:50.879Z,31.06
2022-08-20T09:18:53.191Z,30.83
2022-08-20T09:19:54.882Z,30.60
2022-08-20T09:20:56.645Z,30.38
2022-08-20T09:21:58.362Z,30.19
2022-08-20T09:23:00.042Z,30.03
2022-08-20T09:24:01.924Z,29.88
2022-08-20T09:25:04.469Z,29.74
2022-08-20T09:26:06.796Z,29.65
2022-08-20T09:27:08.916Z,29.56
2022-08-20T09:28:10.908Z,29.50
2022-08-20T09:29:15.115Z,29.44
2022-08-20T09:30:17.984Z,29.37
2022-08-20T09:31:20.246Z,29.32
2022-08-20T09:32:26.035Z,29.26
2022-08-20T09:33:28.173Z,29.20
2022-08-20T09:34:29.854Z,29.14
2022-08-20T09:35:31.539Z,29.10
2022-08-20T09:36:33.555Z,29.05
2022-08-20T09:37:37.650Z,29.01
2022-08-20T09:38:39.642Z,28.95
2022-08-20T09:39:41.923Z,28.90
2022-08-20T09:40:44.446Z,28.85
2022-08-20T09:41:46.120Z,28.80
2022-08-20T09:42:49.569Z,28.74
2022-08-20T09:43:51.227Z,28.68
2022-08-20T09:44:52.925Z,28.62
2022-08-20T09:45:54.673Z,28.58
2022-08-20T09:46:56.316Z,28.53
2022-08-20T09:47:58.543Z,28.50
2022-08-20T09:49:01.687Z,28.47
2022-08-20T09:50:04.473Z,28.43
2022-08-20T09:51:06.474Z,28.40
2022-08-20T09:52:17.998Z,28.36
2022-08-20T09:53:21.850Z,28.33
2022-08-20T09:54:23.715Z,28.29
2022-08-20T09:55:35.777Z,28.26
2022-08-20T09:56:37.459Z,28.23
2022-08-20T09:57:39.154Z,28.20
2022-08-20T09:58:53.329Z,28.17
2022-08-20T10:00:01.393Z,28.13
2022-08-20T10:01:13.874Z,28.11
2022-08-20T10:02:16.009Z,28.06
2022-08-20T10:03:18.262Z,28.07
2022-08-20T10:04:20.025Z,28.34
2022-08-20T10:05:21.681Z,28.85
2022-08-20T10:06:24.411Z,29.39
2022-08-20T10:07:26.206Z,29.85
2022-08-20T10:08:28.427Z,30.20
2022-08-20T10:09:30.237Z,30.30
2022-08-20T10:10:32.023Z,30.13
2022-08-20T10:11:33.833Z,29.88
2022-08-20T10:12:35.747Z,29.62
2022-08-20T10:13:37.400Z,29.38
2022-08-20T10:14:39.049Z,29.16
2022-08-20T10:15:41.973Z,28.99
2022-08-20T10:16:44.413Z,28.84
2022-08-20T10:17:46.034Z,28.70
2022-08-20T10:18:49.278Z,28.59
2022-08-20T10:19:50.972Z,28.48
2022-08-20T10:20:52.634Z,28.38
2022-08-20T10:21:54.951Z,28.28
2022-08-20T10:22:56.669Z,28.20
2022-08-20T10:23:59.193Z,28.10
2022-08-20T10:25:01.059Z,28.00
2022-08-20T10:26:02.813Z,27.92
2022-08-20T10:27:04.825Z,27.83
2022-08-20T10:28:07.058Z,27.77
2022-08-20T10:29:08.948Z,27.71
2022-08-20T10:30:11.406Z,27.65
2022-08-20T10:31:13.201Z,27.73
2022-08-20T10:32:17.211Z,28.11
2022-08-20T10:33:18.977Z,28.63
2022-08-20T10:34:20.737Z,29.10
2022-08-20T10:35:22.496Z,29.51
2022-08-20T10:36:24.147Z,29.84
2022-08-20T10:37:26.774Z,30.06
2022-08-20T10:38:28.404Z,30.01
2022-08-20T10:39:31.562Z,29.77
2022-08-20T10:40:33.368Z,29.49
2022-08-20T10:41:38.763Z,29.25
2022-08-20T10:42:42.759Z,29.02
2022-08-20T10:43:44.526Z,28.82
2022-08-20T10:44:46.895Z,28.66
2022-08-20T10:45:48.553Z,28.52
2022-08-20T10:46:50.251Z,28.41
2022-08-20T10:48:01.982Z,28.30
2022-08-20T10:49:04.855Z,28.22
2022-08-20T10:50:12.011Z,28.15
2022-08-20T10:51:13.675Z,28.09
2022-08-20T10:52:15.357Z,28.08
2022-08-20T10:53:17.846Z,28.35
2022-08-20T10:54:19.585Z,28.83
2022-08-20T10:55:21.269Z,29.33
2022-08-20T10:56:23.037Z,29.77
2022-08-20T10:57:28.624Z,30.15
2022-08-20T10:58:37.644Z,30.41
2022-08-20T10:59:44.855Z,30.36
2022-08-20T11:00:47.250Z,30.12
2022-08-20T11:01:49.020Z,29.86
2022-08-20T11:02:50.783Z,29.61
2022-08-20T11:03:52.474Z,29.39
2022-08-20T11:04:55.166Z,29.19
2022-08-20T11:05:56.934Z,29.01
2022-08-20T11:06:58.688Z,28.86
2022-08-20T11:08:04.090Z,28.72
2022-08-20T11:09:06.030Z,28.59
2022-08-20T11:10:13.720Z,28.60
2022-08-20T11:11:15.586Z,28.93
2022-08-20T11:12:19.820Z,29.39
2022-08-20T11:13:22.011Z,29.86
2022-08-20T11:14:23.711Z,30.25
2022-08-20T11:15:26.217Z,30.55
2022-08-20T11:16:28.022Z,30.77
2022-08-20T11:17:33.310Z,30.93
2022-08-20T11:18:38.825Z,30.90
2022-08-20T11:19:43.338Z,30.67
2022-08-20T11:20:45.087Z,30.37
2022-08-20T11:21:46.724Z,30.10
2022-08-20T11:22:48.430Z,29.85
2022-08-20T11:23:50.501Z,29.63
2022-08-20T11:24:53.297Z,29.45
2022-08-20T11:25:55.101Z,29.29
2022-08-20T11:26:56.902Z,29.15
2022-08-20T11:27:58.957Z,29.04
2022-08-20T11:29:00.747Z,28.91
2022-08-20T11:30:03.062Z,28.79
2022-08-20T11:31:04.809Z,28.67
2022-08-20T11:32:06.868Z,28.56
2022-08-20T11:33:08.903Z,28.59
2022-08-20T11:34:12.736Z,28.93
2022-08-20T11:35:41.215Z,29.41
2022-08-20T11:36:37.838Z,30.00
2022-08-20T11:37:40.467Z,30.35
2022-08-20T11:38:42.114Z,30.63
2022-08-20T11:39:44.199Z,30.82
2022-08-20T11:40:48.948Z,30.74
2022-08-20T11:41:55.338Z,30.47
2022-08-20T11:43:15.615Z,30.15
2022-08-20T11:44:21.091Z,29.77
2022-08-20T11:45:23.352Z,29.49
2022-08-20T11:46:28.487Z,29.26
2022-08-20T11:47:30.556Z,29.05
2022-08-20T11:48:32.265Z,28.89
2022-08-20T11:49:36.428Z,28.88
2022-08-20T11:50:38.129Z,29.19
2022-08-20T11:51:49.461Z,29.62
2022-08-20T11:52:52.039Z,30.11
2022-08-20T11:53:53.807Z,30.49
2022-08-20T11:54:56.521Z,30.81
2022-08-20T11:55:59.539Z,31.06
2022-08-20T11:57:01.221Z,31.09
2022-08-20T11:58:03.501Z,30.91
2022-08-20T11:59:05.479Z,30.65
2022-08-20T12:00:13.592Z,30.38
2022-08-20T12:01:15.256Z,30.10
2022-08-20T12:02:17.041Z,29.88
2022-08-20T12:03:18.780Z,29.67
2022-08-20T12:04:20.753Z,29.50
2022-08-20T12:05:23.982Z,29.34
2022-08-20T12:06:25.666Z,29.23
2022-08-20T12:07:27.514Z,29.11
2022-08-20T12:08:29.466Z,29.01
2022-08-20T12:09:31.107Z,28.90
2022-08-20T12:10:33.005Z,28.80
2022-08-20T12:11:34.692Z,28.70
2022-08-20T12:12:38.720Z,28.59
2022-08-20T12:13:48.808Z,28.50
2022-08-20T12:14:55.538Z,28.40
2022-08-20T12:15:58.017Z,28.33
2022-08-20T12:17:12.184Z,28.28
2022-08-20T12:18:13.829Z,28.28
2022-08-20T12:19:15.754Z,28.30
2022-08-20T12:20:17.529Z,28.33
2022-08-20T12:21:19.693Z,28.38
2022-08-20T12:22:25.241Z,28.42
2022-08-20T12:23:27.341Z,28.45
2022-08-20T12:24:29.633Z,28.46
2022-08-20T12:25:31.439Z,28.45
2022-08-20T12:26:33.089Z,28.44
2022-08-20T12:27:37.660Z,28.41
2022-08-20T12:28:39.856Z,28.40
2022-08-20T12:29:44.297Z,28.37
2022-08-20T12:30:45.916Z,28.35
2022-08-20T12:31:47.598Z,28.34
2022-08-20T12:32:49.609Z,28.31
2022-08-20T12:33:51.279Z,28.28
2022-08-20T12:34:53.892Z,28.24
2022-08-20T12:35:57.302Z,28.20
2022-08-20T12:37:05.085Z,28.15
2022-08-20T12:38:07.090Z,28.09
2022-08-20T12:39:09.375Z,28.05
2022-08-20T12:40:15.884Z,28.01
2022-08-20T12:41:17.577Z,27.97
2022-08-20T12:42:20.870Z,27.96
2022-08-20T12:43:25.004Z,27.95
2022-08-20T12:44:27.244Z,27.95
2022-08-20T12:45:29.739Z,27.92
2022-08-20T12:46:31.378Z,27.91
2022-08-20T12:47:37.014Z,27.91
2022-08-20T12:48:38.698Z,27.92
2022-08-20T12:49:48.465Z,27.95
2022-08-20T12:50:50.518Z,28.01
2022-08-20T12:51:52.319Z,28.11
2022-08-20T12:52:53.992Z,28.21
2022-08-20T12:53:55.666Z,28.30
2022-08-20T12:54:58.812Z,28.41
2022-08-20T12:56:02.455Z,28.52
2022-08-20T12:57:07.257Z,28.61
2022-08-20T12:58:10.797Z,28.71
2022-08-20T12:59:12.458Z,28.79
2022-08-20T13:00:27.524Z,28.87
2022-08-20T13:01:29.285Z,28.98
2022-08-20T13:02:31.199Z,29.05
2022-08-20T13:03:32.859Z,29.09
2022-08-20T13:04:44.872Z,29.12
2022-08-20T13:05:47.322Z,29.12
2022-08-20T13:06:49.495Z,29.13
2022-08-20T13:07:52.580Z,29.14
2022-08-20T13:08:54.221Z,29.12
2022-08-20T13:09:55.903Z,29.10
2022-08-20T13:10:57.713Z,29.06
2022-08-20T13:11:59.416Z,29.03
2022-08-20T13:13:05.177Z,28.98
2022-08-20T13:14:06.917Z,28.93
2022-08-20T13:15:09.183Z,28.87
2022-08-20T13:16:10.994Z,28.82
2022-08-20T13:17:12.698Z,28.78
2022-08-20T13:18:14.436Z,28.75
2022-08-20T13:19:16.122Z,28.72
2022-08-20T13:20:19.097Z,28.71
2022-08-20T13:21:23.881Z,28.71
2022-08-20T13:22:25.777Z,28.72
2022-08-20T13:23:27.417Z,28.75
2022-08-20T13:24:29.296Z,28.78
2022-08-20T13:25:31.673Z,28.81
2022-08-20T13:26:33.328Z,28.84
2022-08-20T13:27:38.367Z,28.90
2022-08-20T13:28:40.144Z,28.98
2022-08-20T13:29:50.942Z,29.07
2022-08-20T13:30:53.836Z,29.18
2022-08-20T13:31:55.500Z,29.28
2022-08-20T13:32:57.295Z,29.39
2022-08-20T13:33:59.223Z,29.50
2022-08-20T13:35:00.906Z,29.63
2022-08-20T13:36:02.716Z,29.77
2022-08-20T13:37:25.536Z,29.92
2022-08-20T13:38:28.166Z,30.12
2022-08-20T13:39:29.891Z,30.26
2022-08-20T13:40:31.894Z,30.41
2022-08-20T13:41:34.461Z,30.52
2022-08-20T13:42:36.746Z,30.60
2022-08-20T13:43:38.401Z,30.65
2022-08-20T13:44:40.633Z,30.68
2022-08-20T13:45:42.826Z,30.73
2022-08-20T13:46:44.650Z,30.78
2022-08-20T13:47:46.368Z,30.81
2022-08-20T13:48:48.068Z,30.85
2022-08-20T13:49:59.459Z,30.87